Etusivu
METAR-TAF:

METAR-TAF

Lentoasemat :

Nouakchottin kansainvälinen lentoasema

Nouakchott, Mauritania

Leveyspiiri: 18-18-36N, Pituuspiiri: 015-58-11W, korkeus merenpinnasta: 3 m

Tämänhetkinen sää

Tämä raportti tehtiin 32 minuuttia sitten, kello 08.30 UTC
Tuuli 9 kn pohjoisesta/koillisesta
Lämpötila 28°C
Kosteus 74%
Ilmanpaine 1014 hPa
Näkyvyys 10 km tai enemmän
ei pilviä alle 1500 m:ssä eikä cumulonimbus-pilviä

METAR: GQNO 200830Z 03009KT CAVOK 28/23 Q1014 NOSIG

Aika: 09:02 (09:02 UTC)

Sääennuste

Tämä raportti tehtiin 4 tuntia ja 2 minuuttia sitten, kello 05.00 UTC
Ennuste voimassa 20. päivästä klo 06 UTC - 21. päivään klo 12 UTC
Tuuli 10 kn pohjoisesta/koillisesta
Näkyvyys: 8000 m
Todennäköisyys 40% :
Ajoittain
20. päivästä klo 09 UTC - 20. päivään klo 16 UTC
Näkyvyys: 4000 m
pölymyrsky

TAF: GQNO 200500Z 2006/2112 03010KT 8000 NSC PROB40 TEMPO 2009/2016 4000 BLDU

Säähavainnot ja -ennusteet yli 4000 lentoasemalta (METAR- ja TAF-raportit).

Käytössä olevat sääasemat on merkitty karttaan keltaisilla ja punaisilla pisteillä.

Aseta hiiri pisteen päälle nähdäksesi sääaseman nimen.

Klikkaa sitten nähdäksesi säähavainnot ja -ennusteet.

Kartan vaihtaminen: klikkaa mustalla rastilla varustettuja vihreitä pisteitä, niin voit zoomata sisään; viivalla varustettua vihreää pistettä, niin voit zoomata ulos tai vihreitä nuolia, niin pääset viereisille kartoille.


METAR-TAF: